Time;durP1;ratioP1;P1;durP2;ratioP2;P2;SDS_P1;SDS_P2;PMS_P1;PMS_P2;Temp;Humidity;BMP_temperature;BMP_pressure;BME280_temperature;BME280_humidity;BME280_pressure;Samples;Min_cycle;Max_cycle;Signal;HPM_P1;HPM_P2
2021/11/06 00:00:41;;;;;;;8.75;7.92;;;;;;;17.57;61.32;100181.58;1764242;80;21009;-66
2021/11/06 00:03:08;;;;;;;7.72;7.03;;;;;;;17.57;61.28;100195.01;1762265;80;21715;-66
2021/11/06 00:05:36;;;;;;;8.78;7.92;;;;;;;17.56;61.28;100199.56;1783493;80;21050;-67
2021/11/06 00:08:03;;;;;;;8.10;7.40;;;;;;;17.55;61.28;100199.23;1780643;80;21103;-65
2021/11/06 00:10:30;;;;;;;7.87;7.17;;;;;;;17.55;61.27;100201.10;1778708;80;21026;-65
2021/11/06 00:12:57;;;;;;;7.25;6.65;;;;;;;17.55;61.24;100218.56;1770838;79;21076;-65
2021/11/06 00:15:23;;;;;;;8.08;7.30;;;;;;;17.53;61.22;100208.53;1770387;79;21064;-66
2021/11/06 00:17:49;;;;;;;8.65;7.85;;;;;;;17.53;61.22;100209.88;1789669;78;21072;-66
2021/11/06 00:20:16;;;;;;;8.48;7.58;;;;;;;17.53;61.21;100199.14;1774040;79;21127;-67
2021/11/06 00:22:43;;;;;;;8.25;7.20;;;;;;;17.52;61.19;100217.61;1784303;80;21009;-67
2021/11/06 00:25:10;;;;;;;8.43;6.78;;;;;;;17.51;61.17;100220.82;1784957;78;21071;-66
2021/11/06 00:27:38;;;;;;;7.50;6.80;;;;;;;17.51;61.17;100224.84;1784136;80;21512;-65
2021/11/06 00:30:07;;;;;;;7.97;7.28;;;;;;;17.50;61.16;100216.49;1768451;80;21036;-66
2021/11/06 00:32:33;;;;;;;7.87;7.17;;;;;;;17.48;61.16;100215.34;1786579;80;21095;-65
2021/11/06 00:35:00;;;;;;;7.97;7.17;;;;;;;17.48;61.14;100216.69;1759032;80;21028;-65
2021/11/06 00:37:27;;;;;;;7.95;7.15;;;;;;;17.47;61.11;100217.70;1758781;80;21044;-66
2021/11/06 00:39:54;;;;;;;8.50;7.70;;;;;;;17.46;61.10;100221.44;1778783;78;21039;-66
2021/11/06 00:42:20;;;;;;;7.67;6.97;;;;;;;17.46;61.09;100221.44;1771705;80;21016;-66
2021/11/06 00:44:46;;;;;;;7.87;7.17;;;;;;;17.45;61.07;100226.48;1784671;78;21187;-66
2021/11/06 00:47:13;;;;;;;7.95;7.25;;;;;;;17.44;61.04;100227.53;1758070;80;21499;-66
2021/11/06 00:49:40;;;;;;;7.62;6.72;;;;;;;17.44;61.02;100227.53;1775110;78;21472;-66
2021/11/06 00:52:07;;;;;;;7.20;6.55;;;;;;;17.44;60.98;100219.96;1777921;80;21068;-66
2021/11/06 00:54:33;;;;;;;8.15;7.45;;;;;;;17.43;60.98;100231.23;1771042;78;21533;-65
2021/11/06 00:57:00;;;;;;;7.70;7.00;;;;;;;17.43;60.96;100231.23;1789809;79;21031;-65
2021/11/06 00:59:26;;;;;;;7.80;7.03;;;;;;;17.41;60.94;100223.89;1761249;81;21050;-64
2021/11/06 01:01:53;;;;;;;8.28;7.47;;;;;;;17.41;60.91;100226.57;1765405;81;21480;-66
2021/11/06 01:04:19;;;;;;;7.78;7.08;;;;;;;17.40;60.88;100224.08;1782703;79;21046;-65
2021/11/06 01:06:45;;;;;;;7.95;7.15;;;;;;;17.40;60.84;100212.84;1771663;79;21084;-66
2021/11/06 01:09:12;;;;;;;7.65;6.95;;;;;;;17.39;60.83;100219.76;1772839;79;21121;-65
2021/11/06 01:11:39;;;;;;;6.87;6.25;;;;;;;17.38;60.83;100222.94;1763741;80;20983;-66
2021/11/06 01:14:05;;;;;;;7.58;6.87;;;;;;;17.38;60.80;100224.28;1802540;79;21522;-66
2021/11/06 01:16:32;;;;;;;7.65;6.70;;;;;;;17.37;60.80;100231.22;1772683;79;21028;-66
2021/11/06 01:18:59;;;;;;;7.28;6.62;;;;;;;17.37;60.76;100224.50;1787739;79;21024;-65
2021/11/06 01:21:25;;;;;;;7.08;6.42;;;;;;;17.36;60.74;100217.46;1779775;78;21207;-66
2021/11/06 01:23:52;;;;;;;7.40;6.80;;;;;;;17.36;60.73;100229.55;1781645;79;21053;-66
2021/11/06 01:26:18;;;;;;;7.85;7.05;;;;;;;17.34;60.71;100233.77;1803219;79;21019;-65
2021/11/06 01:28:45;;;;;;;7.30;6.60;;;;;;;17.34;60.68;100243.69;1785974;79;21002;-65
2021/11/06 01:31:12;;;;;;;7.20;6.50;;;;;;;17.32;60.67;100253.28;1795852;79;21062;-65
2021/11/06 01:33:39;;;;;;;7.00;6.30;;;;;;;17.33;60.63;100248.23;1787547;79;21141;-65
2021/11/06 01:36:05;;;;;;;6.97;6.35;;;;;;;17.32;60.63;100247.09;1742532;81;21163;-66
2021/11/06 01:38:33;;;;;;;6.83;6.22;;;;;;;17.30;60.61;100253.48;1762965;81;21011;-65
2021/11/06 01:40:59;;;;;;;6.58;5.97;;;;;;;17.30;60.58;100270.92;1757532;80;21007;-66
2021/11/06 01:43:26;;;;;;;6.75;6.15;;;;;;;17.30;60.59;100265.56;1757224;79;21572;-65
2021/11/06 01:46:01;;;;;;;6.22;5.67;;;;;;;17.29;60.54;100269.81;1790951;79;21528;-65
2021/11/06 01:48:31;;;;;;;6.65;6.05;;;;;;;17.28;60.54;100270.30;1778679;78;20981;-66
2021/11/06 01:50:56;;;;;;;6.35;5.78;;;;;;;17.28;60.52;100262.77;1793507;79;21073;-66
2021/11/06 01:53:23;;;;;;;6.40;5.83;;;;;;;17.27;60.50;100273.21;1794445;79;21054;-67
2021/11/06 01:55:51;;;;;;;6.55;5.95;;;;;;;17.26;60.47;100275.05;1780752;80;21104;-66
2021/11/06 01:58:21;;;;;;;7.53;6.83;;;;;;;17.26;60.46;100276.91;1781453;77;21258;-66
2021/11/06 02:00:47;;;;;;;6.62;6.03;;;;;;;17.25;60.44;100279.30;1784638;79;21021;-66
2021/11/06 02:03:14;;;;;;;6.50;5.90;;;;;;;17.24;60.43;100292.39;1767064;79;21556;-66
2021/11/06 02:05:43;;;;;;;6.53;5.60;;;;;;;17.24;60.43;100291.05;1778143;80;21021;-65
2021/11/06 02:08:14;;;;;;;6.67;6.08;;;;;;;17.22;60.40;100291.23;1784878;77;21032;-65
2021/11/06 02:10:42;;;;;;;6.03;5.53;;;;;;;17.22;60.36;100295.78;1794598;79;21218;-66
2021/11/06 02:13:09;;;;;;;6.00;5.47;;;;;;;17.22;60.34;100302.50;1800771;79;21026;-66
2021/11/06 02:15:35;;;;;;;5.83;5.33;;;;;;;17.21;60.33;100304.85;1776075;79;21101;-66
2021/11/06 02:18:02;;;;;;;6.67;6.08;;;;;;;17.21;60.32;100312.41;1786692;79;21057;-66
2021/11/06 02:20:29;;;;;;;6.45;5.85;;;;;;;17.20;60.28;100317.98;1794770;79;21504;-65
2021/11/06 02:22:55;;;;;;;6.40;5.80;;;;;;;17.19;60.27;100318.99;1803400;79;21542;-65
2021/11/06 02:25:21;;;;;;;5.80;5.30;;;;;;;17.18;60.25;100323.54;1788723;77;20994;-65
2021/11/06 02:27:48;;;;;;;6.00;5.50;;;;;;;17.18;60.22;100338.30;1801627;79;21017;-66
2021/11/06 02:30:16;;;;;;;6.30;5.70;;;;;;;17.17;60.22;100330.44;1764238;79;21395;-65
2021/11/06 02:32:45;;;;;;;5.95;5.45;;;;;;;17.17;60.18;100329.09;1765488;78;21037;-65
2021/11/06 02:35:12;;;;;;;6.37;5.53;;;;;;;17.16;60.16;100330.96;1770469;79;21215;-65
2021/11/06 02:37:38;;;;;;;6.28;5.72;;;;;;;17.16;60.15;100334.98;1765837;79;21041;-65
2021/11/06 02:40:06;;;;;;;5.58;5.08;;;;;;;17.15;60.12;100340.03;1765571;78;21033;-65
2021/11/06 02:42:33;;;;;;;5.15;4.75;;;;;;;17.15;60.07;100342.71;1766599;78;21048;-66
2021/11/06 02:45:02;;;;;;;5.80;5.30;;;;;;;17.15;60.06;100348.60;1773882;78;21010;-66
2021/11/06 02:47:27;;;;;;;5.92;5.42;;;;;;;17.13;60.05;100354.16;1766462;79;22145;-66
2021/11/06 02:49:54;;;;;;;5.72;5.15;;;;;;;17.13;60.01;100356.02;1789326;78;21033;-65
2021/11/06 02:52:20;;;;;;;5.80;5.30;;;;;;;17.12;60.00;100357.89;1787437;79;21049;-66
2021/11/06 02:54:47;;;;;;;5.90;5.40;;;;;;;17.12;59.99;100346.33;1767260;78;21021;-66
2021/11/06 02:57:15;;;;;;;5.60;5.10;;;;;;;17.10;59.95;100345.17;1787904;79;21070;-65
2021/11/06 02:59:41;;;;;;;5.53;5.03;;;;;;;17.10;59.93;100349.20;1810179;78;23254;-66
2021/11/06 03:02:08;;;;;;;5.35;4.85;;;;;;;17.08;59.90;100358.78;1810909;78;21022;-66
2021/11/06 03:04:37;;;;;;;5.80;5.20;;;;;;;17.09;59.89;100359.61;1809186;79;20991;-66
2021/11/06 03:07:05;;;;;;;5.25;4.75;;;;;;;17.07;59.88;100358.98;1790135;78;21026;-66
2021/11/06 03:09:37;;;;;;;5.83;5.17;;;;;;;17.06;59.88;100366.20;1812189;79;21022;-65
2021/11/06 03:12:03;;;;;;;5.25;4.75;;;;;;;17.05;59.84;100375.27;1805649;79;21018;-65
2021/11/06 03:14:29;;;;;;;5.15;4.65;;;;;;;17.04;59.85;100370.95;1810534;77;20979;-65
2021/11/06 03:16:56;;;;;;;5.45;4.95;;;;;;;17.02;59.81;100372.17;1809769;79;21001;-66
2021/11/06 03:19:22;;;;;;;5.65;5.15;;;;;;;17.03;59.81;100377.84;1804493;79;21029;-66
2021/11/06 03:21:49;;;;;;;6.37;5.80;;;;;;;17.02;59.80;100373.52;1783901;79;21006;-66
2021/11/06 03:24:15;;;;;;;5.47;4.97;;;;;;;17.00;59.79;100372.36;1784363;79;21019;-65
2021/11/06 03:26:41;;;;;;;5.42;4.90;;;;;;;17.00;59.79;100368.34;1780263;79;21306;-66
2021/11/06 03:29:08;;;;;;;5.30;4.80;;;;;;;17.00;59.75;100367.52;1778942;79;21048;-66
2021/11/06 03:31:34;;;;;;;5.45;4.95;;;;;;;16.98;59.73;100360.99;1782251;78;21490;-66
2021/11/06 03:34:01;;;;;;;5.10;4.60;;;;;;;16.97;59.72;100343.22;1810964;78;21033;-66
2021/11/06 03:36:27;;;;;;;5.40;4.90;;;;;;;16.97;59.70;100347.24;1768802;79;21133;-66
2021/11/06 03:38:54;;;;;;;4.78;4.35;;;;;;;16.97;59.69;100345.08;1783826;79;21009;-65
2021/11/06 03:41:20;;;;;;;5.00;4.60;;;;;;;16.96;59.69;100342.06;1783385;78;21053;-67
2021/11/06 03:43:47;;;;;;;5.40;5.00;;;;;;;16.95;59.66;100343.92;1770966;79;21001;-65
2021/11/06 03:46:13;;;;;;;5.10;4.60;;;;;;;16.94;59.66;100362.41;1786593;79;21538;-66
2021/11/06 03:48:39;;;;;;;4.83;4.33;;;;;;;16.93;59.61;100359.39;1782053;77;22047;-65
2021/11/06 03:51:06;;;;;;;5.05;4.65;;;;;;;16.93;59.61;100360.73;1779124;79;21457;-65
2021/11/06 03:53:33;;;;;;;5.05;4.60;;;;;;;16.92;59.59;100360.44;1780093;79;21101;-66
2021/11/06 03:55:59;;;;;;;5.45;4.95;;;;;;;16.91;59.56;100356.08;1772584;79;21485;-66
2021/11/06 03:58:25;;;;;;;4.97;4.47;;;;;;;16.89;59.56;100352.23;1756928;79;21026;-65
2021/11/06 04:00:52;;;;;;;5.12;4.62;;;;;;;16.89;59.54;100362.16;1764507;79;21135;-66
2021/11/06 04:03:18;;;;;;;4.45;4.05;;;;;;;16.87;59.52;100350.27;1763931;79;21032;-67
2021/11/06 04:05:45;;;;;;;4.60;4.20;;;;;;;16.88;59.52;100359.14;1770761;80;21502;-66
2021/11/06 04:08:11;;;;;;;5.20;4.70;;;;;;;16.86;59.51;100353.14;1771729;79;21526;-66
2021/11/06 04:10:39;;;;;;;4.85;4.45;;;;;;;16.86;59.49;100350.45;1768571;79;21573;-66
2021/11/06 04:13:05;;;;;;;4.67;4.28;;;;;;;16.85;59.49;100363.57;1770481;79;21101;-67
2021/11/06 04:15:31;;;;;;;5.03;4.62;;;;;;;16.85;59.46;100365.73;1786021;78;21108;-66
2021/11/06 04:17:58;;;;;;;4.90;4.40;;;;;;;16.84;59.44;100360.55;1763833;79;21053;-66
2021/11/06 04:20:24;;;;;;;4.58;4.15;;;;;;;16.84;59.40;100367.27;1769683;78;21989;-67
2021/11/06 04:22:51;;;;;;;5.37;4.92;;;;;;;16.83;59.41;100369.64;1784495;79;21486;-67
2021/11/06 04:25:18;;;;;;;5.40;4.83;;;;;;;16.83;59.41;100373.67;1787725;78;21166;-66
2021/11/06 04:27:44;;;;;;;5.00;4.50;;;;;;;16.81;59.38;100362.27;1767761;78;21536;-66
2021/11/06 04:30:11;;;;;;;5.05;4.60;;;;;;;16.80;59.35;100352.03;1763382;79;21089;-66
2021/11/06 04:32:38;;;;;;;4.42;4.03;;;;;;;16.79;59.34;100342.86;1769522;78;21021;-66
2021/11/06 04:35:05;;;;;;;5.22;4.83;;;;;;;16.79;59.33;100350.91;1763316;80;21596;-66
2021/11/06 04:37:32;;;;;;;4.65;4.20;;;;;;;16.76;59.32;100353.44;1788391;78;21998;-66
2021/11/06 04:39:58;;;;;;;4.62;4.20;;;;;;;16.77;59.31;100365.03;1790306;79;21570;-66
2021/11/06 04:42:25;;;;;;;4.60;4.20;;;;;;;16.76;59.30;100364.69;1762956;79;21124;-66
2021/11/06 04:44:51;;;;;;;4.47;4.05;;;;;;;16.75;59.27;100367.08;1741502;80;21001;-66
2021/11/06 04:47:17;;;;;;;3.95;3.65;;;;;;;16.75;59.26;100357.69;1779994;77;21040;-67
2021/11/06 04:49:44;;;;;;;5.03;4.37;;;;;;;16.74;59.24;100351.98;1783037;79;21060;-66
2021/11/06 04:52:10;;;;;;;4.42;4.03;;;;;;;16.72;59.26;100368.27;1806019;79;21060;-67
2021/11/06 04:54:36;;;;;;;4.35;3.95;;;;;;;16.71;59.25;100360.74;1787281;79;21590;-65
2021/11/06 04:57:04;;;;;;;4.15;3.75;;;;;;;16.70;59.22;100354.22;1749425;80;20996;-65
2021/11/06 04:59:31;;;;;;;4.58;4.17;;;;;;;16.70;59.21;100363.09;1750274;79;21030;-66
2021/11/06 05:01:57;;;;;;;4.08;3.67;;;;;;;16.70;59.20;100376.50;1766277;79;21143;-66
2021/11/06 05:04:24;;;;;;;3.98;3.60;;;;;;;16.69;59.17;100381.56;1764867;79;21039;-66
2021/11/06 05:06:50;;;;;;;4.05;3.70;;;;;;;16.68;59.13;100379.89;1755352;79;21054;-66
2021/11/06 05:11:09;;;;;;;4.15;3.75;;;;;;;16.73;59.11;100384.70;1838215;75;28358;-67
2021/11/06 05:13:36;;;;;;;3.90;3.60;;;;;;;16.67;59.13;100389.50;1792496;78;21012;-66
2021/11/06 05:16:02;;;;;;;4.55;4.15;;;;;;;16.66;59.11;100387.83;1800116;78;21099;-66
2021/11/06 05:18:28;;;;;;;4.25;3.85;;;;;;;16.66;59.06;100394.02;1788058;77;20973;-68
2021/11/06 05:20:55;;;;;;;4.33;3.95;;;;;;;16.66;59.07;100395.88;1805791;78;20934;-66
2021/11/06 05:23:22;;;;;;;4.62;3.95;;;;;;;16.65;59.05;100402.24;1818181;77;21008;-67
2021/11/06 05:25:48;;;;;;;3.95;3.65;;;;;;;16.64;59.04;100397.92;1811824;77;21041;-66
2021/11/06 05:28:15;;;;;;;4.00;3.70;;;;;;;16.63;59.01;100394.41;1789556;78;21175;-66
2021/11/06 05:30:42;;;;;;;3.87;3.58;;;;;;;16.62;59.01;100404.81;1800313;78;20978;-66
2021/11/06 05:33:09;;;;;;;4.30;3.77;;;;;;;16.62;59.00;100404.81;1791075;78;21047;-66
2021/11/06 05:35:36;;;;;;;4.12;3.75;;;;;;;16.62;59.01;100409.35;1791523;78;21044;-67
2021/11/06 05:38:02;;;;;;;3.95;3.55;;;;;;;16.62;58.96;100410.17;1821153;78;21037;-67
2021/11/06 05:40:29;;;;;;;4.00;3.70;;;;;;;16.62;58.94;100407.49;1803556;78;21096;-66
2021/11/06 05:42:55;;;;;;;4.17;3.77;;;;;;;16.61;58.91;100413.89;1819532;78;21281;-65
2021/11/06 05:45:22;;;;;;;4.00;3.60;;;;;;;16.62;58.90;100424.11;1803987;78;21021;-66
2021/11/06 05:47:48;;;;;;;4.28;3.55;;;;;;;16.60;58.89;100418.92;1812806;78;21447;-66
2021/11/06 05:50:16;;;;;;;3.87;3.58;;;;;;;16.60;58.84;100422.95;1802895;77;21039;-67
2021/11/06 05:52:43;;;;;;;4.03;3.70;;;;;;;16.61;58.83;100421.94;1802711;78;21925;-66
2021/11/06 05:55:13;;;;;;;4.35;3.95;;;;;;;16.61;58.81;100419.26;1794813;78;21643;-67
2021/11/06 05:57:40;;;;;;;3.87;3.58;;;;;;;16.59;58.78;100415.94;1794889;78;20986;-67
2021/11/06 06:00:10;;;;;;;3.80;3.50;;;;;;;16.59;58.79;100422.64;1821135;77;21006;-66
2021/11/06 06:02:37;;;;;;;3.65;3.35;;;;;;;16.59;58.77;100421.30;1825256;78;20970;-67
2021/11/06 06:05:05;;;;;;;3.85;3.52;;;;;;;16.59;58.72;100426.67;1816216;78;21177;-66
2021/11/06 06:07:34;;;;;;;4.10;3.80;;;;;;;16.59;58.71;100432.03;1793211;78;21060;-67
2021/11/06 06:10:01;;;;;;;3.92;3.62;;;;;;;16.57;58.70;100429.20;1789171;77;21609;-68
2021/11/06 06:12:27;;;;;;;3.42;3.12;;;;;;;16.59;58.68;100428.50;1814313;78;20970;-66
2021/11/06 06:14:54;;;;;;;4.17;3.77;;;;;;;16.59;58.65;100436.05;1785250;79;21084;-67
2021/11/06 06:17:21;;;;;;;3.77;3.40;;;;;;;16.59;58.62;100435.20;1813926;77;21091;-65
2021/11/06 06:19:47;;;;;;;4.00;3.60;;;;;;;16.59;58.61;100448.61;1796320;78;21662;-66
2021/11/06 06:22:14;;;;;;;3.40;3.10;;;;;;;16.57;58.58;100448.80;1808585;79;21600;-66
2021/11/06 06:24:40;;;;;;;4.15;3.85;;;;;;;16.60;58.56;100457.00;1802018;79;21042;-67
2021/11/06 06:27:06;;;;;;;3.50;3.20;;;;;;;16.59;58.54;100460.20;1738528;80;21559;-67
2021/11/06 06:29:33;;;;;;;3.83;3.40;;;;;;;16.60;58.53;100466.38;1731576;79;21221;-67
2021/11/06 06:32:00;;;;;;;3.50;3.20;;;;;;;16.61;58.49;100460.84;1749364;81;21569;-66
2021/11/06 06:34:26;;;;;;;3.65;3.35;;;;;;;16.61;58.45;100468.88;1777521;79;21545;-69
2021/11/06 06:36:53;;;;;;;3.33;3.02;;;;;;;16.62;58.44;100462.48;1814398;77;21481;-69
2021/11/06 06:39:19;;;;;;;3.72;3.42;;;;;;;16.63;58.45;100464.16;1784975;79;21039;-67
2021/11/06 06:41:45;;;;;;;3.77;3.47;;;;;;;16.64;58.57;100469.83;1801548;79;21159;-66
2021/11/06 06:44:11;;;;;;;3.35;3.05;;;;;;;16.64;58.60;100468.48;1779257;79;21153;-67
2021/11/06 06:46:38;;;;;;;3.58;3.27;;;;;;;16.65;58.58;100462.11;1785587;79;21551;-69
2021/11/06 06:49:04;;;;;;;3.77;3.47;;;;;;;16.66;58.56;100465.09;1806733;77;21472;-67
2021/11/06 06:51:30;;;;;;;3.92;3.55;;;;;;;16.67;58.52;100465.95;1787645;78;21576;-69
2021/11/06 06:53:57;;;;;;;3.87;3.42;;;;;;;16.69;58.48;100467.94;1791258;78;21263;-66
2021/11/06 06:56:23;;;;;;;3.87;3.47;;;;;;;16.70;58.43;100470.92;1788475;79;20986;-68
2021/11/06 06:58:50;;;;;;;3.87;3.55;;;;;;;16.70;58.42;100481.13;1778767;79;21034;-68
2021/11/06 07:01:16;;;;;;;3.45;3.15;;;;;;;16.71;58.35;100472.08;1787795;79;21010;-68
2021/11/06 07:03:42;;;;;;;3.42;3.12;;;;;;;16.73;58.32;100479.94;1786824;79;21044;-68
2021/11/06 07:06:09;;;;;;;5.58;4.20;;;;;;;16.75;58.26;100478.42;1808237;77;22343;-67
2021/11/06 07:08:35;;;;;;;3.45;3.15;;;;;;;16.76;58.22;100476.03;1791460;77;21106;-69
2021/11/06 07:11:02;;;;;;;3.80;3.50;;;;;;;16.77;58.19;100479.88;1791979;78;21061;-67
2021/11/06 07:13:29;;;;;;;3.20;2.90;;;;;;;16.78;58.13;100484.20;1798629;78;21064;-68
2021/11/06 07:15:55;;;;;;;3.52;3.22;;;;;;;16.79;58.08;100475.15;1793241;78;21065;-67
2021/11/06 07:18:22;;;;;;;3.67;3.37;;;;;;;16.82;58.06;100479.33;1798845;77;21905;-68
2021/11/06 07:20:48;;;;;;;3.95;3.55;;;;;;;16.83;57.99;100487.70;1799522;78;21512;-66
2021/11/06 07:23:15;;;;;;;3.37;3.08;;;;;;;16.84;57.98;100493.38;1795450;78;21024;-68
2021/11/06 07:25:41;;;;;;;3.40;3.10;;;;;;;16.84;57.94;100486.67;1800353;78;21085;-68
2021/11/06 07:28:08;;;;;;;3.50;3.20;;;;;;;16.86;57.89;100474.75;1814645;78;21118;-67
2021/11/06 07:30:34;;;;;;;3.15;2.85;;;;;;;16.88;57.86;100479.89;1793479;78;21088;-66
2021/11/06 07:33:01;;;;;;;4.20;3.40;;;;;;;16.89;57.83;100481.05;1807617;77;21053;-67
2021/11/06 07:35:27;;;;;;;3.75;3.40;;;;;;;16.91;57.77;100479.53;1793363;78;21131;-66
2021/11/06 07:37:53;;;;;;;3.52;3.22;;;;;;;16.93;57.74;100476.14;1797055;78;21032;-67
2021/11/06 07:40:21;;;;;;;3.30;2.90;;;;;;;16.94;57.68;100467.56;1793431;78;21009;-68
2021/11/06 07:42:49;;;;;;;3.72;3.42;;;;;;;16.96;57.64;100469.06;1793813;78;21145;-66
2021/11/06 07:45:18;;;;;;;3.52;3.22;;;;;;;16.98;57.60;100478.23;1793377;78;21061;-66
2021/11/06 07:47:44;;;;;;;3.40;3.10;;;;;;;16.99;57.57;100476.70;1793291;78;21040;-67
2021/11/06 07:50:11;;;;;;;3.30;3.00;;;;;;;17.02;57.54;100483.05;1800027;78;21049;-67
2021/11/06 07:52:37;;;;;;;3.60;3.30;;;;;;;17.04;57.52;100493.59;1808977;78;20998;-67
2021/11/06 07:55:05;;;;;;;3.67;3.37;;;;;;;17.06;57.49;100496.39;1804476;78;21974;-70
2021/11/06 07:57:34;;;;;;;3.30;3.00;;;;;;;17.09;57.43;100508.11;1794502;78;21084;-69
2021/11/06 08:00:01;;;;;;;3.50;3.20;;;;;;;17.13;57.41;100507.70;1794832;78;21047;-67
2021/11/06 08:02:30;;;;;;;3.58;3.27;;;;;;;17.16;57.38;100506.81;1794661;78;21029;-70
2021/11/06 08:04:56;;;;;;;3.87;3.55;;;;;;;17.19;57.36;100509.13;1794834;78;20994;-69
2021/11/06 08:07:24;;;;;;;3.40;3.10;;;;;;;17.24;57.30;100507.19;1793189;78;21122;-69
2021/11/06 08:09:50;;;;;;;3.60;3.30;;;;;;;17.27;57.27;100515.70;1792791;78;21029;-70
2021/11/06 08:12:17;;;;;;;3.50;3.20;;;;;;;17.32;57.18;100515.10;1776797;79;21029;-64
2021/11/06 08:14:43;;;;;;;3.58;3.27;;;;;;;17.35;57.12;100516.07;1783209;79;21532;-65
2021/11/06 08:17:10;;;;;;;3.10;2.90;;;;;;;17.40;57.01;100523.05;1796430;79;21045;-67
2021/11/06 08:19:37;;;;;;;3.20;2.92;;;;;;;17.44;56.95;100528.34;1784363;79;22203;-64
2021/11/06 08:22:03;;;;;;;3.10;2.80;;;;;;;17.49;56.88;100521.86;1785346;79;21114;-68
2021/11/06 08:24:29;;;;;;;3.70;3.40;;;;;;;17.55;56.80;100524.80;1793753;79;21014;-64
2021/11/06 08:26:56;;;;;;;3.22;2.92;;;;;;;17.59;56.74;100522.04;1788765;79;21076;-66
2021/11/06 08:29:22;;;;;;;3.15;2.85;;;;;;;17.64;56.69;100532.52;1794083;79;21096;-65
2021/11/06 08:31:49;;;;;;;3.20;2.90;;;;;;;17.69;56.66;100534.12;1792607;79;21005;-66
2021/11/06 08:34:16;;;;;;;3.75;3.35;;;;;;;17.75;56.66;100545.09;1782044;79;21050;-67
2021/11/06 08:36:42;;;;;;;3.10;2.67;;;;;;;17.81;56.70;100537.59;1786726;79;21021;-66
2021/11/06 08:39:08;;;;;;;3.40;3.10;;;;;;;17.87;56.70;100536.86;1800968;79;21038;-66
2021/11/06 08:41:36;;;;;;;3.70;3.35;;;;;;;17.93;56.65;100531.21;1756428;80;21099;-66
2021/11/06 08:44:02;;;;;;;3.58;3.17;;;;;;;17.98;56.57;100534.97;1744021;81;21985;-66
2021/11/06 08:46:29;;;;;;;2.87;2.67;;;;;;;18.04;56.53;100531.48;1750713;81;21070;-68
2021/11/06 08:48:56;;;;;;;3.37;3.08;;;;;;;18.10;56.46;100526.33;1753019;81;21030;-67
2021/11/06 08:51:22;;;;;;;3.10;2.80;;;;;;;18.16;56.38;100525.03;1794363;79;20998;-67
2021/11/06 08:53:49;;;;;;;2.98;2.67;;;;;;;18.21;56.30;100526.59;1804243;79;21017;-68
2021/11/06 08:56:16;;;;;;;3.40;2.80;;;;;;;18.28;56.23;100528.81;1795079;79;21167;-67
2021/11/06 08:58:44;;;;;;;3.60;2.95;;;;;;;18.33;56.21;100530.92;1786719;77;21013;-67
2021/11/06 09:01:12;;;;;;;3.50;3.20;;;;;;;18.39;56.21;100534.15;1782930;79;21014;-68
2021/11/06 09:03:38;;;;;;;3.08;2.77;;;;;;;18.49;56.20;100532.95;1783418;79;21073;-67
2021/11/06 09:06:05;;;;;;;3.42;3.10;;;;;;;18.55;56.20;100525.41;1782275;79;21057;-67
2021/11/06 09:08:33;;;;;;;3.80;3.00;;;;;;;18.63;56.23;100523.88;1781059;79;21098;-68
2021/11/06 09:11:04;;;;;;;3.30;3.00;;;;;;;18.70;56.21;100519.86;1778603;79;21104;-68
2021/11/06 09:13:32;;;;;;;3.17;2.87;;;;;;;18.78;56.21;100520.52;1795787;78;21037;-67
2021/11/06 09:16:02;;;;;;;3.25;2.95;;;;;;;18.85;56.25;100516.02;1809164;78;21047;-67
2021/11/06 09:18:28;;;;;;;3.10;2.90;;;;;;;18.94;56.27;100514.47;1787077;79;21069;-68
2021/11/06 09:20:55;;;;;;;3.22;2.92;;;;;;;19.01;56.25;100509.41;1799983;77;21061;-68
2021/11/06 09:23:21;;;;;;;2.80;2.60;;;;;;;19.09;56.12;100512.43;1790051;79;21001;-68
2021/11/06 09:25:48;;;;;;;3.00;2.70;;;;;;;19.17;56.07;100507.36;1806716;77;21477;-68
2021/11/06 09:28:14;;;;;;;3.00;2.77;;;;;;;19.25;56.15;100499.07;1805077;77;21072;-68
2021/11/06 09:30:41;;;;;;;2.77;2.50;;;;;;;19.33;56.22;100505.59;1795814;79;21049;-68
2021/11/06 09:33:07;;;;;;;3.10;2.77;;;;;;;19.43;56.18;100498.44;1798368;77;21088;-68
2021/11/06 09:35:34;;;;;;;2.83;2.62;;;;;;;19.53;56.29;100503.41;1808540;79;21069;-67
2021/11/06 09:38:01;;;;;;;3.05;2.72;;;;;;;19.60;56.17;100498.33;1812878;79;21053;-67
2021/11/06 09:40:27;;;;;;;2.83;2.62;;;;;;;19.68;56.07;100498.63;1803356;77;20990;-67
2021/11/06 09:42:53;;;;;;;3.08;2.77;;;;;;;19.75;55.82;100508.09;1805253;79;21029;-69
2021/11/06 09:45:20;;;;;;;2.95;2.67;;;;;;;19.81;55.59;100505.91;1804367;79;21121;-67
2021/11/06 09:47:47;;;;;;;3.22;2.92;;;;;;;19.83;55.45;100512.73;1793142;79;21021;-67
2021/11/06 09:50:16;;;;;;;3.15;2.65;;;;;;;19.89;55.28;100510.25;1803697;77;21007;-68
2021/11/06 09:52:44;;;;;;;2.77;2.58;;;;;;;19.92;55.26;100513.88;1806768;79;21073;-69
2021/11/06 09:55:11;;;;;;;2.87;2.67;;;;;;;19.98;55.37;100513.03;1798940;79;20986;-69
2021/11/06 09:57:38;;;;;;;2.55;2.35;;;;;;;20.03;55.44;100505.15;1787236;78;21095;-69
2021/11/06 10:00:07;;;;;;;2.85;2.62;;;;;;;20.12;55.53;100510.59;1781471;79;21255;-68
2021/11/06 10:02:36;;;;;;;3.00;2.72;;;;;;;20.20;55.48;100503.64;1791712;77;21014;-67
2021/11/06 10:05:04;;;;;;;3.17;2.87;;;;;;;20.30;55.47;100505.89;1786618;79;21037;-67
2021/11/06 10:07:32;;;;;;;2.60;2.40;;;;;;;20.40;55.53;100505.43;1778629;79;21049;-68
2021/11/06 10:10:12;;;;;;;2.75;2.55;;;;;;;20.50;55.40;100501.74;1781671;78;21143;-68
2021/11/06 10:12:52;;;;;;;2.75;2.55;;;;;;;20.59;55.40;100500.48;1786242;77;21021;-67
2021/11/06 10:15:22;;;;;;;3.00;2.70;;;;;;;20.70;55.27;100496.79;1785371;79;21132;-67
2021/11/06 10:17:48;;;;;;;2.83;2.62;;;;;;;20.79;55.17;100492.80;1787507;79;21099;-68
2021/11/06 10:20:31;;;;;;;2.60;2.40;;;;;;;20.81;54.88;100481.25;1788269;79;21066;-67
2021/11/06 10:23:01;;;;;;;2.40;2.20;;;;;;;20.94;54.71;100484.41;1786809;77;21837;-68
2021/11/06 10:25:28;;;;;;;2.45;2.25;;;;;;;21.01;54.59;100484.66;1783538;79;20990;-68
2021/11/06 10:28:09;;;;;;;2.87;2.58;;;;;;;21.09;54.38;100486.77;1782407;77;21495;-65
2021/11/06 10:30:39;;;;;;;3.72;2.37;;;;;;;21.15;54.31;100481.33;1784369;79;21005;-66
2021/11/06 10:33:15;;;;;;;2.37;2.17;;;;;;;21.23;54.19;100473.98;1784566;77;21010;-66
2021/11/06 10:35:48;;;;;;;3.22;2.40;;;;;;;21.29;54.24;100480.70;1785583;79;21056;-66
2021/11/06 10:38:19;;;;;;;4.60;2.70;;;;;;;21.36;54.23;100475.22;1795415;79;21070;-65
2021/11/06 10:40:55;;;;;;;3.02;2.58;;;;;;;21.43;53.94;100481.94;1797476;79;21002;-65
2021/11/06 10:43:23;;;;;;;2.42;2.22;;;;;;;21.46;53.68;100476.09;1785746;79;21061;-65
2021/11/06 10:45:55;;;;;;;2.55;2.35;;;;;;;21.48;53.41;100490.22;1786015;79;21574;-66
2021/11/06 10:48:24;;;;;;;2.50;2.30;;;;;;;21.47;53.20;100485.34;1779267;78;23330;-66
2021/11/06 10:51:04;;;;;;;2.58;2.37;;;;;;;21.46;53.05;100484.20;1797725;79;21068;-65
2021/11/06 10:53:51;;;;;;;2.58;2.30;;;;;;;21.43;52.98;100481.94;1790484;79;20999;-66
2021/11/06 10:56:28;;;;;;;2.50;2.30;;;;;;;21.39;52.92;100480.19;1787904;79;21003;-66
2021/11/06 10:58:59;;;;;;;2.45;2.20;;;;;;;21.36;52.83;100475.22;1780388;79;21521;-68
2021/11/06 11:01:38;;;;;;;2.45;2.20;;;;;;;21.36;52.91;100480.13;1785137;79;21783;-64
2021/11/06 11:04:12;;;;;;;3.02;2.30;;;;;;;21.39;52.99;100478.31;1790679;79;20994;-64
2021/11/06 11:06:51;;;;;;;2.50;2.30;;;;;;;21.46;53.03;100470.69;1787052;78;21030;-65
2021/11/06 11:09:25;;;;;;;2.83;2.58;;;;;;;21.52;52.93;100474.70;1793978;77;21117;-65
2021/11/06 11:11:57;;;;;;;2.35;2.15;;;;;;;21.60;52.90;100466.83;1793134;78;20997;-64
2021/11/06 11:14:26;;;;;;;2.55;2.35;;;;;;;21.67;52.76;100474.86;1787318;79;21078;-65
2021/11/06 11:16:58;;;;;;;3.52;2.30;;;;;;;21.74;52.70;100468.34;1814244;79;21585;-67
2021/11/06 11:19:38;;;;;;;3.15;2.10;;;;;;;21.82;52.57;100461.80;1800709;79;21046;-66
2021/11/06 11:22:06;;;;;;;2.52;2.33;;;;;;;21.88;52.46;100461.44;1794266;79;21013;-67
2021/11/06 11:24:33;;;;;;;3.02;2.30;;;;;;;21.95;52.39;100459.49;1805069;78;21138;-67
2021/11/06 11:26:59;;;;;;;2.47;2.27;;;;;;;22.01;52.28;100459.12;1812014;77;21116;-66